Time;durP1;ratioP1;P1;durP2;ratioP2;P2;SDS_P1;SDS_P2;PMS_P1;PMS_P2;Temp;Humidity;BMP_temperature;BMP_pressure;BME280_temperature;BME280_humidity;BME280_pressure;Samples;Min_cycle;Max_cycle;Signal;HPM_P1;HPM_P2
2022/07/31 00:01:15;;;;;;;3.57;3.23;;;18.30;99.90;;;;;;4992169;28;20207;-86
2022/07/31 00:03:41;;;;;;;3.30;2.53;;;18.30;99.90;;;;;;4976017;28;20207;-86
2022/07/31 00:06:07;;;;;;;3.00;2.70;;;18.20;99.90;;;;;;4976087;28;20184;-86
2022/07/31 00:08:34;;;;;;;3.13;2.83;;;18.20;99.90;;;;;;4992188;28;20183;-86
2022/07/31 00:11:00;;;;;;;3.93;3.07;;;18.10;99.90;;;;;;4975681;28;20752;-85
2022/07/31 00:13:26;;;;;;;3.10;2.53;;;18.10;99.90;;;;;;4976197;28;20207;-86
2022/07/31 00:15:52;;;;;;;3.97;3.00;;;18.10;99.90;;;;;;4976085;28;20187;-86
2022/07/31 00:18:18;;;;;;;3.30;2.75;;;18.20;99.90;;;;;;4997656;28;20180;-86
2022/07/31 00:20:44;;;;;;;3.47;2.70;;;18.20;99.90;;;;;;4980016;28;20223;-86
2022/07/31 00:23:10;;;;;;;3.08;2.45;;;18.20;99.90;;;;;;4991998;28;20211;-86
2022/07/31 00:25:36;;;;;;;2.80;2.50;;;18.20;99.90;;;;;;5008158;28;20281;-86
2022/07/31 00:28:02;;;;;;;2.92;2.47;;;18.10;99.90;;;;;;4991746;28;20279;-86
2022/07/31 00:30:29;;;;;;;3.85;2.60;;;18.20;99.90;;;;;;4991648;28;20210;-86
2022/07/31 00:32:55;;;;;;;2.83;2.50;;;18.10;99.90;;;;;;4992372;28;20249;-86
2022/07/31 00:35:21;;;;;;;3.17;2.87;;;18.00;99.90;;;;;;4991843;28;20282;-86
2022/07/31 00:37:47;;;;;;;3.80;3.40;;;18.00;99.90;;;;;;4991782;28;20267;-86
2022/07/31 00:40:15;;;;;;;3.93;3.63;;;18.00;99.90;;;;;;4991672;28;20298;-86
2022/07/31 00:42:42;;;;;;;5.17;3.93;;;17.90;99.90;;;;;;4991371;28;20220;-86
2022/07/31 00:45:09;;;;;;;4.37;4.03;;;17.90;99.90;;;;;;4975897;28;20186;-86
2022/07/31 00:47:35;;;;;;;4.80;3.87;;;17.80;99.90;;;;;;4991571;28;20232;-86
2022/07/31 00:50:02;;;;;;;4.70;3.70;;;17.80;99.90;;;;;;4991275;28;20195;-85
2022/07/31 00:52:28;;;;;;;4.18;3.78;;;17.80;99.90;;;;;;4991800;28;20266;-86
2022/07/31 00:54:54;;;;;;;4.50;4.10;;;17.80;99.90;;;;;;4975489;28;20183;-86
2022/07/31 00:57:20;;;;;;;4.20;3.83;;;17.70;99.90;;;;;;4991842;28;20180;-86
2022/07/31 00:59:46;;;;;;;4.07;3.67;;;17.80;99.90;;;;;;4975224;28;20612;-86
2022/07/31 01:02:12;;;;;;;4.73;3.60;;;17.80;99.90;;;;;;4974962;28;20215;-86
2022/07/31 01:04:38;;;;;;;4.47;3.97;;;17.80;99.90;;;;;;4975606;28;20188;-86
2022/07/31 01:07:04;;;;;;;3.70;3.40;;;17.80;99.90;;;;;;4975175;28;20184;-86
2022/07/31 01:09:30;;;;;;;5.37;3.57;;;17.80;99.90;;;;;;4975407;28;20187;-85
2022/07/31 01:11:59;;;;;;;3.63;3.27;;;17.80;99.90;;;;;;4975325;28;20227;-86
2022/07/31 01:14:30;;;;;;;5.00;3.50;;;17.80;99.90;;;;;;4975299;28;20177;-86
2022/07/31 01:16:58;;;;;;;4.03;2.93;;;17.80;99.90;;;;;;4975237;28;20183;-86
2022/07/31 01:19:43;;;;;;;4.93;3.00;;;17.80;99.90;;;;;;4975514;28;20176;-86
2022/07/31 01:22:26;;;;;;;3.50;3.20;;;17.80;99.90;;;;;;4991009;28;20254;-86
2022/07/31 01:25:50;;;;;;;3.70;3.20;;;17.80;99.90;;;;;;4991501;28;20181;-86
2022/07/31 01:28:55;;;;;;;4.63;4.13;;;17.70;99.90;;;;;;4894654;29;20202;-86
2022/07/31 01:31:28;;;;;;;5.40;4.00;;;17.60;99.90;;;;;;4975567;28;20205;-86
2022/07/31 01:34:04;;;;;;;4.20;3.80;;;17.50;99.90;;;;;;4995462;28;20171;-86
2022/07/31 01:36:33;;;;;;;4.43;3.97;;;17.50;99.90;;;;;;4979091;28;20168;-85
2022/07/31 01:39:02;;;;;;;4.83;4.23;;;17.50;99.90;;;;;;4994998;28;20168;-86
2022/07/31 01:41:34;;;;;;;4.30;3.90;;;17.40;99.90;;;;;;4978586;28;20203;-86
2022/07/31 01:44:04;;;;;;;4.23;3.83;;;17.40;99.90;;;;;;4978898;28;20202;-86
2022/07/31 01:46:33;;;;;;;4.30;3.83;;;17.40;99.90;;;;;;4979550;28;20260;-85
2022/07/31 01:49:01;;;;;;;4.27;3.87;;;17.40;99.90;;;;;;4988151;28;20266;-86
2022/07/31 01:51:30;;;;;;;4.63;4.10;;;17.30;99.90;;;;;;4978739;28;20326;-86
2022/07/31 01:53:58;;;;;;;3.70;3.37;;;17.10;99.90;;;;;;4978831;28;20183;-86
2022/07/31 01:56:25;;;;;;;6.37;3.57;;;17.00;99.90;;;;;;4994944;28;20184;-86
2022/07/31 01:58:51;;;;;;;3.80;3.50;;;16.90;99.90;;;;;;4978863;28;20180;-86
2022/07/31 02:01:45;;;;;;;3.67;3.33;;;16.80;99.90;;;;;;4991106;28;20208;-86
2022/07/31 02:04:13;;;;;;;3.00;2.70;;;16.80;99.90;;;;;;4978106;28;20216;-85
2022/07/31 02:06:42;;;;;;;3.90;3.40;;;16.80;99.90;;;;;;4977772;28;20271;-86
2022/07/31 02:09:10;;;;;;;4.93;3.57;;;16.70;99.90;;;;;;4978673;28;20701;-86
2022/07/31 02:11:36;;;;;;;3.67;3.37;;;16.70;99.90;;;;;;4977827;28;20245;-86
2022/07/31 02:14:03;;;;;;;4.23;3.40;;;16.70;99.90;;;;;;4977649;28;20648;-85
2022/07/31 02:16:33;;;;;;;3.70;3.30;;;16.60;99.90;;;;;;4978477;28;20168;-86
2022/07/31 02:19:10;;;;;;;3.43;2.90;;;16.60;99.90;;;;;;4994448;28;20258;-86
2022/07/31 02:21:36;;;;;;;3.67;3.37;;;16.60;99.90;;;;;;4977450;28;20207;-86
2022/07/31 02:24:02;;;;;;;3.70;3.40;;;16.50;99.90;;;;;;4977923;28;20204;-86
2022/07/31 02:26:30;;;;;;;4.73;3.23;;;16.50;99.90;;;;;;4993708;28;20653;-86
2022/07/31 02:28:57;;;;;;;7.00;3.60;;;16.50;99.90;;;;;;4979632;28;20189;-86
2022/07/31 02:31:26;;;;;;;7.00;3.17;;;16.50;99.90;;;;;;4981212;28;20203;-85
2022/07/31 02:33:52;;;;;;;5.00;3.60;;;16.50;99.90;;;;;;4999426;28;20180;-86
2022/07/31 02:36:21;;;;;;;3.33;3.10;;;16.50;99.90;;;;;;4995415;28;20182;-86
2022/07/31 02:38:49;;;;;;;3.60;3.20;;;16.50;99.90;;;;;;4994196;28;20709;-85
2022/07/31 02:41:18;;;;;;;3.60;3.30;;;16.50;99.90;;;;;;4977547;28;20200;-85
2022/07/31 02:43:45;;;;;;;6.47;3.43;;;16.50;99.90;;;;;;4993424;28;20298;-86
2022/07/31 02:46:18;;;;;;;3.70;3.10;;;16.50;99.90;;;;;;4994180;28;20172;-86
2022/07/31 02:48:44;;;;;;;3.30;3.07;;;16.50;99.90;;;;;;4993780;28;20235;-86
2022/07/31 02:51:12;;;;;;;3.53;3.23;;;16.60;99.90;;;;;;4982017;28;20207;-86
2022/07/31 02:53:40;;;;;;;4.63;3.27;;;16.60;99.90;;;;;;5013105;28;20186;-86
2022/07/31 02:56:09;;;;;;;3.97;3.27;;;16.60;99.90;;;;;;5013305;28;20181;-86
2022/07/31 02:58:43;;;;;;;3.67;3.23;;;16.70;99.90;;;;;;5013283;28;20206;-85
2022/07/31 03:01:24;;;;;;;4.93;3.57;;;16.80;99.90;;;;;;5012768;28;20250;-85
2022/07/31 03:03:51;;;;;;;5.50;3.03;;;16.70;99.90;;;;;;5012664;28;20214;-85
2022/07/31 03:06:17;;;;;;;3.30;3.00;;;16.70;99.90;;;;;;5012608;28;20176;-86
2022/07/31 03:08:43;;;;;;;3.70;3.03;;;16.60;99.90;;;;;;5012580;28;20593;-85
2022/07/31 03:11:11;;;;;;;3.93;3.20;;;16.60;99.90;;;;;;5012728;28;20207;-85
2022/07/31 03:13:42;;;;;;;3.30;3.00;;;16.60;99.90;;;;;;5028754;28;20171;-85
2022/07/31 03:16:10;;;;;;;4.37;3.00;;;16.50;99.90;;;;;;5012579;28;20186;-85
2022/07/31 03:18:38;;;;;;;3.43;3.20;;;16.50;99.90;;;;;;5012366;28;20183;-86
2022/07/31 03:21:05;;;;;;;3.40;3.10;;;16.50;99.90;;;;;;5012370;28;20203;-85
2022/07/31 03:23:35;;;;;;;3.77;3.47;;;16.60;99.90;;;;;;5012782;28;20206;-86
2022/07/31 03:26:06;;;;;;;4.17;3.77;;;16.50;99.90;;;;;;5012777;28;20186;-85
2022/07/31 03:28:34;;;;;;;4.37;3.70;;;16.50;99.90;;;;;;5012111;28;20187;-86
2022/07/31 03:31:00;;;;;;;4.47;3.50;;;16.40;99.90;;;;;;5011995;28;20203;-85
2022/07/31 03:33:29;;;;;;;4.07;3.50;;;16.40;99.90;;;;;;5012427;28;20245;-85
2022/07/31 03:35:56;;;;;;;3.67;3.37;;;16.30;99.90;;;;;;5012417;28;20179;-85
2022/07/31 03:38:23;;;;;;;5.33;3.63;;;16.30;99.90;;;;;;5012398;28;20200;-85
2022/07/31 03:40:50;;;;;;;3.50;3.20;;;16.20;99.90;;;;;;5012079;28;20223;-85
2022/07/31 03:43:18;;;;;;;3.63;3.33;;;16.10;99.90;;;;;;5003412;28;20196;-86
2022/07/31 03:45:45;;;;;;;3.83;3.43;;;16.10;99.90;;;;;;4976224;28;20180;-86
2022/07/31 03:48:12;;;;;;;5.20;3.73;;;16.10;99.90;;;;;;4976403;28;20176;-85
2022/07/31 03:50:41;;;;;;;5.73;3.60;;;16.00;99.90;;;;;;4975480;28;20203;-85
2022/07/31 03:53:08;;;;;;;3.80;3.50;;;16.00;99.90;;;;;;4992802;28;20172;-86
2022/07/31 03:55:38;;;;;;;3.43;3.13;;;16.00;99.90;;;;;;4976851;28;20176;-85
2022/07/31 03:58:06;;;;;;;4.23;3.57;;;16.00;99.90;;;;;;4976383;28;20179;-85
2022/07/31 04:00:33;;;;;;;4.03;3.60;;;16.00;99.90;;;;;;4975396;28;20283;-86
2022/07/31 04:03:09;;;;;;;4.83;3.40;;;15.90;99.90;;;;;;4976395;28;20203;-85
2022/07/31 04:05:59;;;;;;;4.10;3.37;;;15.90;99.90;;;;;;4981932;28;20180;-85
2022/07/31 04:08:24;;;;;;;3.97;3.40;;;15.80;99.90;;;;;;4976320;28;20250;-85
2022/07/31 04:10:51;;;;;;;4.00;3.70;;;15.70;99.90;;;;;;4975353;28;20196;-86
2022/07/31 04:13:20;;;;;;;4.83;3.50;;;15.60;99.90;;;;;;4976256;28;20604;-85
2022/07/31 04:15:47;;;;;;;5.97;3.77;;;15.60;99.90;;;;;;4975651;28;20203;-85
2022/07/31 04:18:13;;;;;;;4.73;3.90;;;15.50;99.90;;;;;;4975856;28;20191;-85
2022/07/31 04:20:41;;;;;;;4.03;3.63;;;15.50;99.90;;;;;;4975868;28;20262;-85
2022/07/31 04:23:07;;;;;;;4.10;3.70;;;15.50;99.90;;;;;;4975705;28;20925;-86
2022/07/31 04:25:52;;;;;;;3.57;3.27;;;15.60;99.90;;;;;;4992393;28;20171;-85
2022/07/31 04:28:34;;;;;;;4.67;3.40;;;15.60;99.90;;;;;;4977700;28;20183;-86
2022/07/31 04:31:00;;;;;;;5.37;3.50;;;15.60;99.90;;;;;;4991270;28;20204;-85
2022/07/31 04:33:26;;;;;;;5.67;3.63;;;15.60;99.90;;;;;;4975881;28;20246;-85
2022/07/31 04:35:54;;;;;;;5.17;3.87;;;15.70;99.90;;;;;;4975666;28;20211;-86
2022/07/31 04:38:20;;;;;;;5.73;3.63;;;15.70;99.90;;;;;;4975701;28;20188;-86
2022/07/31 04:40:48;;;;;;;4.03;3.47;;;15.80;99.90;;;;;;4991574;28;20203;-85
2022/07/31 04:43:15;;;;;;;4.50;3.87;;;15.80;99.90;;;;;;4975235;28;20207;-86
2022/07/31 04:45:42;;;;;;;3.63;3.37;;;15.80;99.90;;;;;;4975623;28;20258;-86
2022/07/31 04:48:10;;;;;;;3.80;3.50;;;15.90;99.90;;;;;;4975365;28;20184;-86
2022/07/31 04:50:36;;;;;;;3.60;3.10;;;15.90;99.90;;;;;;4975454;28;20204;-86
2022/07/31 04:53:03;;;;;;;3.97;3.10;;;16.00;99.90;;;;;;4991338;28;20179;-86
2022/07/31 04:55:34;;;;;;;3.30;3.10;;;16.10;99.90;;;;;;4975372;28;20187;-86
2022/07/31 04:58:00;;;;;;;3.63;3.33;;;16.20;99.90;;;;;;4972037;28;20184;-86
2022/07/31 05:00:28;;;;;;;4.00;3.17;;;16.30;99.90;;;;;;4971678;28;20297;-86
2022/07/31 05:02:54;;;;;;;5.60;3.57;;;16.30;99.90;;;;;;4983062;28;20210;-86
2022/07/31 05:05:21;;;;;;;3.97;3.67;;;16.30;99.90;;;;;;4991369;28;20184;-86
2022/07/31 05:07:47;;;;;;;4.90;4.00;;;16.40;99.90;;;;;;4994545;28;20176;-86
2022/07/31 05:13:28;;;;;;;5.20;3.77;;;16.40;99.90;;;;;;4963024;28;20704;-86
2022/07/31 05:15:54;;;;;;;3.80;3.50;;;16.40;99.90;;;;;;4995425;28;20218;-86
2022/07/31 05:18:20;;;;;;;3.93;3.47;;;16.40;99.90;;;;;;4995564;28;20231;-86
2022/07/31 05:21:06;;;;;;;3.80;3.50;;;16.50;99.90;;;;;;4995268;28;20214;-86
2022/07/31 05:23:58;;;;;;;4.03;3.67;;;16.60;99.90;;;;;;4998836;28;20266;-86
2022/07/31 05:26:44;;;;;;;4.77;3.40;;;16.70;99.90;;;;;;4997839;28;20180;-86
2022/07/31 05:29:11;;;;;;;8.77;7.33;;;16.80;99.90;;;;;;5011732;28;20188;-86
2022/07/31 05:31:37;;;;;;;9.40;8.67;;;16.90;99.90;;;;;;4994749;28;20206;-86
2022/07/31 05:34:06;;;;;;;7.47;5.37;;;16.90;99.90;;;;;;4995245;28;20657;-86
2022/07/31 05:36:41;;;;;;;4.77;3.33;;;17.00;99.90;;;;;;4995488;28;20175;-86
2022/07/31 05:39:08;;;;;;;3.90;3.60;;;17.00;99.90;;;;;;4995123;28;20202;-86
2022/07/31 05:41:41;;;;;;;3.87;3.43;;;17.10;99.90;;;;;;4994996;28;20208;-86
2022/07/31 05:44:25;;;;;;;3.57;3.27;;;17.20;99.90;;;;;;4997761;28;20295;-86
2022/07/31 05:46:55;;;;;;;3.67;3.37;;;17.30;99.90;;;;;;4999163;28;20263;-87
2022/07/31 05:49:25;;;;;;;3.90;3.60;;;17.40;99.90;;;;;;4995710;28;20187;-86
2022/07/31 05:51:54;;;;;;;4.50;2.97;;;17.50;99.90;;;;;;4995975;28;20208;-87
2022/07/31 05:54:24;;;;;;;8.17;4.50;;;17.60;99.90;;;;;;4978827;28;20399;-87
2022/07/31 05:57:28;;;;;;;7.87;5.37;;;17.70;99.90;;;;;;4944043;29;20195;-87
2022/07/31 05:59:57;;;;;;;3.57;3.23;;;17.80;99.90;;;;;;4938627;28;20190;-87
2022/07/31 06:02:25;;;;;;;20.13;14.17;;;17.90;99.90;;;;;;4952599;28;20200;-86
2022/07/31 06:05:12;;;;;;;4.07;3.77;;;18.00;99.90;;;;;;4938287;29;20208;-86
2022/07/31 06:07:39;;;;;;;3.50;3.20;;;18.10;99.90;;;;;;4955159;29;20180;-87
2022/07/31 06:10:14;;;;;;;4.73;3.23;;;18.10;99.90;;;;;;4975462;28;20181;-88
2022/07/31 06:12:41;;;;;;;4.03;3.60;;;18.20;99.90;;;;;;4987676;28;20181;-86
2022/07/31 06:15:09;;;;;;;3.97;2.93;;;18.30;99.90;;;;;;5009038;28;20187;-85
2022/07/31 06:17:39;;;;;;;7.95;5.85;;;18.40;99.90;;;;;;4990554;28;20188;-86
2022/07/31 06:20:15;;;;;;;6.22;4.80;;;18.40;99.90;;;;;;4996037;28;20686;-86
2022/07/31 06:22:45;;;;;;;3.92;3.42;;;18.50;99.90;;;;;;4997306;28;20306;-88
2022/07/31 06:25:12;;;;;;;6.57;5.22;;;18.60;99.90;;;;;;5008656;28;20249;-87
2022/07/31 06:27:38;;;;;;;6.63;4.60;;;18.60;99.90;;;;;;5011498;28;20187;-85
2022/07/31 06:30:06;;;;;;;5.47;4.40;;;18.60;99.90;;;;;;5003059;28;20713;-88
2022/07/31 06:32:33;;;;;;;6.55;5.63;;;18.60;99.90;;;;;;4968474;28;20196;-87
2022/07/31 06:35:01;;;;;;;3.80;3.40;;;18.70;99.90;;;;;;5004111;28;20187;-87
2022/07/31 06:37:34;;;;;;;4.10;2.97;;;18.80;99.90;;;;;;4995904;28;20187;-86
2022/07/31 06:40:00;;;;;;;5.03;3.28;;;18.90;99.90;;;;;;4995111;28;20241;-86
2022/07/31 06:42:56;;;;;;;4.55;3.00;;;19.00;99.90;;;;;;4972241;28;20216;-86
2022/07/31 06:46:00;;;;;;;4.63;2.67;;;19.10;99.90;;;;;;4953914;29;20220;-86
2022/07/31 06:48:45;;;;;;;3.20;2.90;;;19.30;99.90;;;;;;4950353;29;20192;-86
2022/07/31 06:51:14;;;;;;;4.35;3.10;;;19.40;99.90;;;;;;4962476;28;20211;-86
2022/07/31 06:53:47;;;;;;;2.65;2.45;;;19.50;99.90;;;;;;4994178;28;20176;-86
2022/07/31 06:56:13;;;;;;;2.95;2.50;;;19.70;99.90;;;;;;4977599;28;20180;-86
2022/07/31 06:58:40;;;;;;;4.03;2.83;;;19.80;99.90;;;;;;4977463;28;20180;-86
2022/07/31 07:01:06;;;;;;;2.67;2.35;;;19.90;99.90;;;;;;4977109;28;20254;-87
2022/07/31 07:03:32;;;;;;;3.90;2.97;;;20.10;99.90;;;;;;4993148;28;20613;-87
2022/07/31 07:06:02;;;;;;;3.47;3.05;;;20.20;99.90;;;;;;4976951;28;20176;-88
2022/07/31 07:08:29;;;;;;;3.72;3.00;;;20.30;99.90;;;;;;4977376;28;20184;-88
2022/07/31 07:10:55;;;;;;;3.10;2.80;;;20.50;99.90;;;;;;4976670;28;20203;-88
2022/07/31 07:13:29;;;;;;;3.08;2.70;;;20.60;99.90;;;;;;4994746;28;20187;-88
2022/07/31 07:15:56;;;;;;;3.85;2.88;;;20.70;99.90;;;;;;4976816;28;20211;-86
2022/07/31 07:18:25;;;;;;;2.83;2.60;;;20.90;99.90;;;;;;4978048;28;20188;-86
2022/07/31 07:20:53;;;;;;;4.20;2.90;;;21.20;99.90;;;;;;4976913;28;20204;-87
2022/07/31 07:23:20;;;;;;;3.08;2.88;;;21.40;99.90;;;;;;5009650;28;20192;-87
2022/07/31 07:25:53;;;;;;;2.70;2.50;;;21.60;99.90;;;;;;4978067;28;20175;-87
2022/07/31 07:28:20;;;;;;;2.75;2.55;;;21.60;99.90;;;;;;4977041;28;20180;-87
2022/07/31 07:30:47;;;;;;;3.53;2.20;;;21.80;99.90;;;;;;4976039;28;20203;-87
2022/07/31 07:33:13;;;;;;;5.68;2.90;;;21.90;99.90;;;;;;4976893;28;20191;-87
2022/07/31 07:35:39;;;;;;;2.90;2.70;;;22.10;99.90;;;;;;4992868;28;20180;-87
2022/07/31 07:38:11;;;;;;;2.97;2.67;;;22.20;99.90;;;;;;4977854;28;20172;-87
2022/07/31 07:40:39;;;;;;;2.63;2.35;;;22.30;99.90;;;;;;4975571;28;20200;-87
2022/07/31 07:43:05;;;;;;;4.88;2.75;;;22.50;99.90;;;;;;4976644;28;20203;-87
2022/07/31 07:45:31;;;;;;;2.75;2.40;;;22.70;99.90;;;;;;4976934;28;20252;-87
2022/07/31 07:47:57;;;;;;;3.63;2.45;;;22.80;99.90;;;;;;4976843;28;20184;-87
2022/07/31 07:50:24;;;;;;;3.72;2.75;;;22.90;99.90;;;;;;4976107;28;20196;-87
2022/07/31 07:53:11;;;;;;;2.88;2.20;;;23.10;99.90;;;;;;4979270;28;20212;-87
2022/07/31 07:55:56;;;;;;;2.85;2.60;;;23.20;99.90;;;;;;4992864;28;20194;-87
2022/07/31 07:58:45;;;;;;;3.20;2.90;;;23.30;99.90;;;;;;4990710;28;20196;-87
2022/07/31 08:01:29;;;;;;;3.38;2.35;;;23.60;99.90;;;;;;4992930;28;20215;-87
2022/07/31 08:04:06;;;;;;;2.75;2.20;;;23.60;99.90;;;;;;4986001;28;20207;-87
2022/07/31 08:06:32;;;;;;;2.42;2.17;;;23.70;99.90;;;;;;4973335;28;20177;-87
2022/07/31 08:08:58;;;;;;;2.45;2.25;;;23.80;99.90;;;;;;4980882;28;20177;-87
2022/07/31 08:11:50;;;;;;;2.17;1.98;;;24.00;99.90;;;;;;4976321;28;20192;-87
2022/07/31 08:14:26;;;;;;;2.40;2.20;;;24.40;99.90;;;;;;5008533;28;20176;-87
2022/07/31 08:17:18;;;;;;;3.08;2.40;;;24.70;99.90;;;;;;4985701;28;20663;-87
2022/07/31 08:19:44;;;;;;;2.28;2.17;;;24.80;99.90;;;;;;4973134;28;20195;-87
2022/07/31 08:22:11;;;;;;;2.10;1.92;;;24.70;99.90;;;;;;4972673;28;20204;-87
2022/07/31 08:24:37;;;;;;;2.38;2.08;;;24.70;99.90;;;;;;4973229;28;20172;-87
2022/07/31 08:30:06;;;;;;;2.55;2.35;;;25.00;99.90;;;;;;4951906;29;20177;-87
2022/07/31 08:32:33;;;;;;;2.50;2.30;;;25.10;99.90;;;;;;4968894;28;20192;-86
2022/07/31 08:35:19;;;;;;;2.30;2.10;;;25.20;99.90;;;;;;4985956;28;20188;-87
2022/07/31 08:37:47;;;;;;;2.75;2.25;;;25.30;99.90;;;;;;4991697;28;20180;-87
2022/07/31 08:40:18;;;;;;;2.90;2.30;;;25.20;99.90;;;;;;4991207;28;20200;-87
2022/07/31 08:42:45;;;;;;;2.40;2.22;;;25.20;99.90;;;;;;4991062;28;20204;-87
2022/07/31 08:45:13;;;;;;;2.67;2.35;;;25.10;99.90;;;;;;4991692;28;20183;-87
2022/07/31 08:47:49;;;;;;;3.70;2.00;;;25.10;99.90;;;;;;5010831;28;20187;-87
2022/07/31 08:50:25;;;;;;;2.60;2.30;;;25.10;99.90;;;;;;4978169;28;20285;-87
2022/07/31 08:52:54;;;;;;;2.75;2.13;;;25.40;99.90;;;;;;4961212;28;20281;-87
2022/07/31 08:55:42;;;;;;;2.33;2.05;;;25.70;99.90;;;;;;4969242;28;20180;-87
2022/07/31 08:58:08;;;;;;;2.63;2.00;;;26.10;99.90;;;;;;4975489;28;20184;-87
2022/07/31 09:00:34;;;;;;;2.15;1.95;;;26.40;99.90;;;;;;4975157;28;20210;-88
2022/07/31 09:03:02;;;;;;;2.20;2.00;;;26.70;99.90;;;;;;4975587;28;20261;-87
2022/07/31 09:05:44;;;;;;;2.42;2.00;;;27.00;99.90;;;;;;4977881;28;20330;-87
2022/07/31 09:08:12;;;;;;;1.90;1.80;;;27.20;99.90;;;;;;4982149;28;20175;-87
2022/07/31 09:10:38;;;;;;;1.85;1.75;;;27.30;99.90;;;;;;4995099;28;20238;-87
2022/07/31 09:13:17;;;;;;;2.58;1.80;;;27.50;99.90;;;;;;4995014;28;20221;-88
2022/07/31 09:15:45;;;;;;;1.80;1.70;;;27.80;99.90;;;;;;4995321;28;20182;-87
2022/07/31 09:18:20;;;;;;;3.45;2.03;;;28.00;98.00;;;;;;4995029;28;20183;-87
2022/07/31 09:20:54;;;;;;;2.13;1.83;;;28.20;97.70;;;;;;5008166;28;20203;-87
2022/07/31 09:23:21;;;;;;;2.85;1.80;;;28.30;97.50;;;;;;4974894;28;20203;-88
2022/07/31 09:26:02;;;;;;;1.80;1.70;;;28.50;97.30;;;;;;4975853;28;20176;-87
2022/07/31 09:28:36;;;;;;;2.38;1.70;;;28.70;96.70;;;;;;4975483;28;20634;-87
2022/07/31 09:31:04;;;;;;;2.05;1.67;;;28.90;96.80;;;;;;4975089;28;20288;-87
2022/07/31 09:33:48;;;;;;;2.35;1.77;;;29.10;97.30;;;;;;4995044;28;20182;-87
2022/07/31 09:36:30;;;;;;;2.70;1.60;;;29.40;95.60;;;;;;5011758;28;20195;-86
2022/07/31 09:39:13;;;;;;;3.70;1.60;;;29.50;95.30;;;;;;4984917;28;20176;-88
2022/07/31 09:42:06;;;;;;;1.88;1.60;;;29.30;94.70;;;;;;4984671;28;20232;-87
2022/07/31 09:44:47;;;;;;;3.03;1.88;;;29.50;95.20;;;;;;4972497;28;20197;-87
2022/07/31 09:47:26;;;;;;;3.05;1.77;;;29.40;94.10;;;;;;4976186;28;20171;-88
2022/07/31 09:49:55;;;;;;;3.25;1.60;;;29.60;93.70;;;;;;4983061;28;20187;-87
2022/07/31 09:52:21;;;;;;;2.00;1.80;;;29.70;93.50;;;;;;4997139;28;20188;-87
2022/07/31 09:54:48;;;;;;;2.05;1.90;;;29.70;92.50;;;;;;5014261;28;20183;-88
2022/07/31 09:57:28;;;;;;;2.25;1.70;;;29.50;92.90;;;;;;5006586;28;20181;-87
2022/07/31 09:59:57;;;;;;;2.58;1.70;;;29.50;94.30;;;;;;4995527;28;20270;-87
2022/07/31 10:02:26;;;;;;;2.67;1.90;;;29.60;94.10;;;;;;4994061;28;20180;-87
2022/07/31 10:04:54;;;;;;;2.35;1.75;;;29.60;93.40;;;;;;5011731;28;20184;-88
2022/07/31 10:07:25;;;;;;;1.60;1.50;;;29.50;92.40;;;;;;4988540;28;20180;-87
2022/07/31 10:09:56;;;;;;;4.10;1.60;;;29.60;93.30;;;;;;4984831;28;20263;-87
2022/07/31 10:12:48;;;;;;;1.98;1.88;;;29.60;94.20;;;;;;4963273;28;20195;-88
2022/07/31 10:15:16;;;;;;;2.65;1.80;;;29.70;93.70;;;;;;4997129;28;20247;-87
2022/07/31 10:17:48;;;;;;;1.83;1.73;;;29.70;92.80;;;;;;4982226;28;20198;-88
2022/07/31 10:20:36;;;;;;;1.70;1.60;;;29.70;92.20;;;;;;5009652;28;20259;-88
2022/07/31 10:23:29;;;;;;;2.67;1.90;;;29.90;92.50;;;;;;5008343;28;20199;-87
2022/07/31 10:25:59;;;;;;;3.03;1.70;;;29.70;92.30;;;;;;4989756;28;20179;-88
2022/07/31 10:28:30;;;;;;;2.72;2.10;;;29.70;92.50;;;;;;5005413;28;20267;-87
2022/07/31 10:30:57;;;;;;;3.78;2.65;;;29.60;93.00;;;;;;4998947;28;20282;-87
2022/07/31 10:33:27;;;;;;;1.90;1.80;;;29.50;92.70;;;;;;5000772;28;20190;-87
2022/07/31 10:36:20;;;;;;;3.75;1.92;;;29.60;93.60;;;;;;4993427;28;20288;-87
2022/07/31 10:39:13;;;;;;;2.38;1.80;;;29.60;92.10;;;;;;5004449;28;20187;-88
2022/07/31 10:42:12;;;;;;;3.35;2.00;;;29.70;93.30;;;;;;5013520;28;20191;-88
2022/07/31 10:44:49;;;;;;;2.95;1.70;;;30.00;93.10;;;;;;4994803;28;20208;-88
2022/07/31 10:47:22;;;;;;;1.95;1.75;;;30.10;92.00;;;;;;4994390;28;20175;-88
2022/07/31 10:50:20;;;;;;;1.88;1.77;;;30.30;91.70;;;;;;4997108;28;20199;-88
2022/07/31 10:53:11;;;;;;;2.00;1.80;;;30.30;91.90;;;;;;4994215;28;20187;-86
2022/07/31 10:56:02;;;;;;;2.88;1.90;;;30.70;90.60;;;;;;5004770;28;20234;-86
2022/07/31 10:59:00;;;;;;;2.35;1.88;;;30.60;90.00;;;;;;4987976;28;20188;-86
2022/07/31 11:01:50;;;;;;;3.42;2.63;;;30.60;91.10;;;;;;4994943;28;20214;-87
2022/07/31 11:04:37;;;;;;;2.03;1.83;;;30.50;91.00;;;;;;4991988;28;20239;-87
2022/07/31 11:07:35;;;;;;;3.67;1.90;;;30.50;91.00;;;;;;4983026;28;20256;-86
2022/07/31 11:10:16;;;;;;;2.20;1.98;;;30.30;89.60;;;;;;4993182;28;20686;-87
2022/07/31 11:13:03;;;;;;;2.97;1.90;;;30.10;90.90;;;;;;4998159;28;20172;-87
2022/07/31 11:16:04;;;;;;;2.80;1.75;;;29.70;91.10;;;;;;4982471;28;20172;-87
2022/07/31 11:19:02;;;;;;;1.75;1.65;;;29.60;90.80;;;;;;4993655;28;20267;-88
2022/07/31 11:21:35;;;;;;;2.28;2.03;;;29.50;90.90;;;;;;4981346;28;20234;-88
2022/07/31 11:24:11;;;;;;;1.80;1.70;;;29.50;90.60;;;;;;4983453;28;20205;-88
2022/07/31 11:26:40;;;;;;;1.70;1.60;;;29.60;90.70;;;;;;4992371;28;20182;-89
2022/07/31 11:29:06;;;;;;;1.88;1.77;;;29.60;90.90;;;;;;4995213;28;20222;-88
2022/07/31 11:31:32;;;;;;;2.67;1.95;;;29.50;90.80;;;;;;4998370;28;20291;-88
2022/07/31 11:34:03;;;;;;;1.85;1.70;;;29.60;90.60;;;;;;4995425;28;20243;-88
2022/07/31 11:36:29;;;;;;;1.88;1.77;;;29.80;90.10;;;;;;5012646;28;20191;-88
2022/07/31 11:38:55;;;;;;;3.20;1.75;;;30.10;90.60;;;;;;4997381;28;20390;-88
2022/07/31 11:41:28;;;;;;;2.50;2.00;;;30.40;88.40;;;;;;4980537;28;20222;-88
2022/07/31 11:44:04;;;;;;;2.08;1.80;;;30.40;89.00;;;;;;4996505;28;20204;-87
2022/07/31 11:46:32;;;;;;;2.78;1.80;;;30.40;89.50;;;;;;4989726;28;20187;-87
2022/07/31 11:49:00;;;;;;;3.08;1.58;;;30.40;89.30;;;;;;4992844;28;20222;-88
2022/07/31 11:51:29;;;;;;;1.95;1.85;;;30.00;89.20;;;;;;4986720;28;20205;-88
2022/07/31 11:53:56;;;;;;;3.17;1.60;;;29.70;87.90;;;;;;4957860;28;20191;-87
2022/07/31 11:56:24;;;;;;;2.17;1.95;;;29.80;88.80;;;;;;4961385;28;20176;-87
2022/07/31 11:58:53;;;;;;;3.53;1.75;;;30.00;90.10;;;;;;4993485;28;20186;-88
2022/07/31 12:01:26;;;;;;;2.47;1.90;;;30.20;90.10;;;;;;4988153;28;20677;-87
2022/07/31 12:03:52;;;;;;;2.20;2.03;;;30.30;88.00;;;;;;4975256;28;20291;-87
2022/07/31 12:06:20;;;;;;;2.20;1.77;;;30.50;88.00;;;;;;4974446;28;20172;-88
2022/07/31 12:08:47;;;;;;;2.78;2.00;;;30.70;86.90;;;;;;5006639;28;20183;-88
2022/07/31 12:11:15;;;;;;;1.75;1.65;;;31.00;86.50;;;;;;5005439;28;20205;-88
2022/07/31 12:13:47;;;;;;;2.10;1.73;;;31.20;87.00;;;;;;4996394;28;20189;-88
2022/07/31 12:16:14;;;;;;;2.13;1.92;;;31.50;85.50;;;;;;5004517;28;20168;-87
2022/07/31 12:18:57;;;;;;;2.85;1.60;;;31.10;85.70;;;;;;5000444;28;20183;-88
2022/07/31 12:21:32;;;;;;;2.05;1.85;;;31.00;87.30;;;;;;4992462;28;20212;-88
2022/07/31 12:23:59;;;;;;;1.80;1.70;;;30.80;86.10;;;;;;4992558;28;20238;-87
2022/07/31 12:26:32;;;;;;;2.58;1.98;;;30.60;87.30;;;;;;4992336;28;20686;-88
2022/07/31 12:29:05;;;;;;;2.00;1.80;;;30.70;88.60;;;;;;5011442;28;20646;-88
2022/07/31 12:31:43;;;;;;;2.60;1.70;;;30.70;87.60;;;;;;5012335;28;20226;-88
2022/07/31 12:34:09;;;;;;;1.70;1.60;;;30.40;87.70;;;;;;5012301;28;20261;-88
2022/07/31 12:36:36;;;;;;;5.53;1.70;;;30.30;89.00;;;;;;5012377;28;20190;-88
2022/07/31 12:39:04;;;;;;;1.95;1.70;;;30.10;87.60;;;;;;5028449;28;20175;-88
2022/07/31 12:41:41;;;;;;;3.10;1.70;;;30.00;87.40;;;;;;5008233;28;20192;-88
2022/07/31 12:44:11;;;;;;;2.25;1.60;;;29.90;86.90;;;;;;4993793;28;20198;-88
2022/07/31 12:46:37;;;;;;;3.60;1.67;;;30.10;88.30;;;;;;5012064;28;20235;-88
2022/07/31 12:49:05;;;;;;;2.28;1.88;;;30.40;88.40;;;;;;5012349;28;20210;-89
2022/07/31 12:51:34;;;;;;;1.95;1.75;;;30.70;86.80;;;;;;5007757;28;20192;-88
2022/07/31 12:54:05;;;;;;;1.55;1.40;;;30.90;86.90;;;;;;4992532;28;20187;-88
2022/07/31 12:56:39;;;;;;;1.85;1.75;;;31.00;86.60;;;;;;5001820;28;20302;-88
2022/07/31 12:59:07;;;;;;;1.88;1.77;;;30.80;85.20;;;;;;5011890;28;20179;-87
2022/07/31 13:01:34;;;;;;;4.43;1.65;;;30.80;83.40;;;;;;5011701;28;20245;-88
2022/07/31 13:04:00;;;;;;;2.75;1.75;;;30.80;85.20;;;;;;4996381;28;20211;-88
2022/07/31 13:06:28;;;;;;;2.80;1.70;;;31.00;87.10;;;;;;5002731;28;20180;-88
2022/07/31 13:08:55;;;;;;;1.85;1.65;;;31.30;85.10;;;;;;4993204;28;20176;-88
2022/07/31 13:11:24;;;;;;;2.25;1.73;;;31.60;84.20;;;;;;4977467;28;20204;-88
2022/07/31 13:13:51;;;;;;;4.22;1.80;;;31.80;85.40;;;;;;5012487;28;20275;-88
2022/07/31 13:16:19;;;;;;;2.30;1.52;;;31.70;84.00;;;;;;5016074;28;20188;-88
2022/07/31 13:18:45;;;;;;;2.25;1.70;;;32.00;83.40;;;;;;4992751;28;20184;-88